| time (UTC) | temp C | wind direction | speed KPH | gust KPH | rain 1hr cm | rain 24hr cm | rain mn cm | humidity % | barometer mb |
| 20260506104131 | 21 | 0 | 6.4 | 8.0 | 0.00 | 0.00 | 0.00 | 20 | 1008.9 |
| 20260506103130 | 20 | 0 | 9.7 | 9.7 | 0.00 | 0.00 | 0.00 | 20 | 1009.9 |
| 20260506102105 | 21 | 45 | 6.4 | 8.0 | 0.00 | 0.00 | 0.00 | 20 | 1009.9 |
| 20260506101106 | 21 | 67 | 4.8 | 6.4 | 0.00 | 0.00 | 0.00 | 22 | 1009.9 |
| 20260506100106 | 20 | 45 | 6.4 | 4.8 | 0.00 | 0.00 | 0.00 | 23 | 1009.9 |
| 20260506095106 | 19 | 270 | 9.7 | 9.7 | 0.00 | 0.00 | 0.00 | 23 | 1009.9 |
| 20260506094105 | 19 | 45 | 4.8 | 6.4 | 0.00 | 0.00 | 0.00 | 30 | 1009.9 |
| 20260506093107 | 18 | 67 | 6.4 | 6.4 | 0.00 | 0.00 | 0.00 | 30 | 1009.9 |
| 20260506092107 | 18 | 112 | 6.4 | 6.4 | 0.00 | 0.00 | 0.00 | 30 | 1009.9 |
| 20260506091106 | 17 | 337 | 4.8 | 6.4 | 0.00 | 0.00 | 0.00 | 31 | 1009.9 |
| 20260506090105 | 17 | 22 | 6.4 | 11.3 | 0.00 | 0.00 | 0.00 | 27 | 1009.9 |
| 20260506085105 | 17 | 90 | 8.0 | 6.4 | 0.00 | 0.00 | 0.00 | 31 | 1009.9 |
| 20260506084107 | 17 | 45 | 4.8 | 4.8 | 0.00 | 0.00 | 0.00 | 31 | 1009.9 |
| 20260506083106 | 17 | 0 | 8.0 | 6.4 | 0.00 | 0.00 | 0.00 | 34 | 1009.9 |
| 20260506082106 | 16 | 22 | 4.8 | 6.4 | 0.00 | 0.00 | 0.00 | 36 | 1009.9 |
| 20260506081106 | 15 | 0 | 6.4 | 4.8 | 0.00 | 0.00 | 0.00 | 36 | 1009.9 |
| 20260506080107 | 16 | 0 | 8.0 | 6.4 | 0.00 | 0.00 | 0.00 | 36 | 1009.9 |
| 20260506073105 | 15 | 0 | 6.4 | 8.0 | 0.00 | 0.00 | 0.00 | 45 | 1010.9 |
| 20260506072105 | 15 | 0 | 3.2 | 0.0 | 0.00 | 0.00 | 0.00 | 49 | 1010.9 |
| 20260506071107 | 14 | 0 | 4.8 | 6.4 | 0.00 | 0.00 | 0.00 | 54 | 1010.9 |
| 20260506070106 | 13 | 337 | 6.4 | 6.4 | 0.00 | 0.00 | 0.00 | 56 | 1010.9 |
| 20260506062106 | 12 | 225 | 0.0 | 0.0 | 0.00 | 0.00 | 0.00 | 58 | 1010.9 |
| 20260506061106 | 12 | 225 | 3.2 | 4.8 | 0.00 | 0.00 | 0.00 | 58 | 1010.9 |
| 20260506060107 | 12 | 225 | 0.0 | 0.0 | 0.00 | 0.00 | 0.00 | 60 | 1010.9 |
| 20260506051106 | 10 | 180 | 0.0 | 0.0 | 0.00 | 0.00 | 0.00 | 60 | 1010.9 |
| 20260506050106 | 10 | 180 | 0.0 | 4.8 | 0.00 | 0.00 | 0.00 | 60 | 1010.9 |
| 20260506045106 | 9 | 180 | 1.6 | 4.8 | 0.00 | 0.00 | 0.00 | 59 | 1010.9 |
| 20260506044105 | 9 | 180 | 0.0 | 0.0 | 0.00 | 0.00 | 0.00 | 59 | 1010.9 |
| 20260506043106 | 9 | 157 | 6.4 | 6.4 | 0.00 | 0.00 | 0.00 | 59 | 1010.9 |
| 20260506042106 | 9 | 180 | 4.8 | 6.4 | 0.00 | 0.00 | 0.00 | 59 | 1010.9 |
| 20260506041106 | 9 | 180 | 0.0 | 0.0 | 0.00 | 0.00 | 0.00 | 59 | 1011.9 |
| 20260506040105 | 9 | 180 | 1.6 | 9.7 | 0.00 | 0.00 | 0.00 | 58 | 1011.9 |
| 20260506035105 | 9 | 180 | 1.6 | 0.0 | 0.00 | 0.00 | 0.00 | 58 | 1011.9 |
| 20260506034105 | 9 | 180 | 6.4 | 6.4 | 0.00 | 0.00 | 0.00 | 58 | 1011.9 |
| 20260506033106 | 9 | 247 | 4.8 | 4.8 | 0.00 | 0.00 | 0.00 | 57 | 1011.9 |
| 20260506032106 | 9 | 247 | 0.0 | 0.0 | 0.00 | 0.00 | 0.00 | 57 | 1011.9 |
| 20260506031106 | 9 | 247 | 0.0 | 0.0 | 0.00 | 0.00 | 0.00 | 56 | 1011.9 |
| 20260506030105 | 9 | 180 | 6.4 | 6.4 | 0.00 | 0.00 | 0.00 | 55 | 1011.9 |
| 20260506025105 | 10 | 292 | 0.0 | 0.0 | 0.00 | 0.00 | 0.00 | 54 | 1011.9 |
| 20260506024106 | 10 | 292 | 1.6 | 0.0 | 0.00 | 0.00 | 0.00 | 53 | 1011.9 |
| 20260506023105 | 10 | 247 | 0.0 | 0.0 | 0.00 | 0.00 | 0.00 | 51 | 1011.9 |
| 20260506022105 | 11 | 247 | 0.0 | 0.0 | 0.00 | 0.00 | 0.00 | 53 | 1011.9 |
| 20260506021106 | 11 | 247 | 4.8 | 4.8 | 0.00 | 0.00 | 0.00 | 53 | 1011.9 |
| 20260506020106 | 11 | 247 | 0.0 | 0.0 | 0.00 | 0.00 | 0.00 | 53 | 1011.9 |
| 20260506015106 | 11 | 270 | 6.4 | 4.8 | 0.00 | 0.00 | 0.00 | 53 | 1011.9 |
| 20260506014105 | 11 | 157 | 0.0 | 0.0 | 0.00 | 0.00 | 0.00 | 50 | 1011.9 |
| 20260506013106 | 11 | 157 | 0.0 | 0.0 | 0.00 | 0.00 | 0.00 | 50 | 1011.9 |
| 20260506012106 | 11 | 270 | 3.2 | 4.8 | 0.00 | 0.00 | 0.00 | 50 | 1011.9 |
| 20260506011106 | 11 | 247 | 3.2 | 6.4 | 0.00 | 0.00 | 0.00 | 48 | 1011.9 |
| 20260506010105 | 12 | 247 | 6.4 | 4.8 | 0.00 | 0.00 | 0.00 | 48 | 1011.9 |
| 20260506005105 | 12 | 180 | 9.7 | 8.0 | 0.00 | 0.00 | 0.00 | 49 | 1011.9 |
| 20260506004106 | 12 | 157 | 6.4 | 6.4 | 0.00 | 0.00 | 0.00 | 48 | 1011.9 |
| 20260506003106 | 12 | 180 | 8.0 | 8.0 | 0.00 | 0.00 | 0.00 | 48 | 1012.9 |
| 20260506002106 | 12 | 202 | 3.2 | 6.4 | 0.00 | 0.00 | 0.00 | 48 | 1012.9 |
| 20260506001105 | 12 | 247 | 0.0 | 0.0 | 0.00 | 0.00 | 0.00 | 48 | 1012.9 |
| 20260506000106 | 12 | 247 | 0.0 | 0.0 | 0.00 | 0.00 | 0.00 | 47 | 1012.9 |
| 20260505235106 | 12 | 247 | 0.0 | 0.0 | 0.00 | 0.00 | 0.00 | 47 | 1012.9 |
| 20260505234105 | 13 | 270 | 4.8 | 0.0 | 0.00 | 0.00 | 0.00 | 47 | 1012.9 |
| 20260505233107 | 13 | 270 | 6.4 | 6.4 | 0.00 | 0.00 | 0.00 | 46 | 1012.9 |
| 20260505232107 | 13 | 315 | 8.0 | 6.4 | 0.00 | 0.00 | 0.00 | 46 | 1012.9 |
| 20260505231106 | 13 | 315 | 6.4 | 6.4 | 0.00 | 0.00 | 0.00 | 42 | 1012.9 |
| 20260505230105 | 13 | 292 | 6.4 | 6.4 | 0.00 | 0.00 | 0.00 | 41 | 1012.9 |
| 20260505225105 | 13 | 270 | 9.7 | 14.5 | 0.00 | 0.00 | 0.00 | 43 | 1012.9 |
| 20260505224106 | 13 | 292 | 9.7 | 9.7 | 0.00 | 0.00 | 0.00 | 46 | 1011.9 |
| 20260505223106 | 13 | 225 | 6.4 | 8.0 | 0.00 | 0.00 | 0.00 | 53 | 1011.9 |
| 20260505222105 | 13 | 202 | 6.4 | 6.4 | 0.00 | 0.00 | 0.00 | 54 | 1011.9 |
| 20260505221107 | 13 | 180 | 1.6 | 6.4 | 0.00 | 0.00 | 0.00 | 55 | 1011.9 |
| 20260505220105 | 13 | 180 | 4.8 | 0.0 | 0.00 | 0.00 | 0.00 | 56 | 1011.9 |
| 20260505215105 | 13 | 270 | 4.8 | 0.0 | 0.00 | 0.00 | 0.00 | 58 | 1011.9 |
| 20260505214107 | 12 | 157 | 6.4 | 6.4 | 0.00 | 0.00 | 0.00 | 59 | 1011.9 |
| 20260505213106 | 12 | 247 | 6.4 | 6.4 | 0.00 | 0.00 | 0.00 | 60 | 1010.9 |
| 20260505212106 | 11 | 247 | 4.8 | 4.8 | 0.00 | 0.00 | 0.00 | 58 | 1010.9 |
| 20260505211105 | 10 | 315 | 3.2 | 6.4 | 0.00 | 0.00 | 0.00 | 57 | 1010.9 |
| 20260505210105 | 11 | 45 | 1.6 | 0.0 | 0.00 | 0.00 | 0.00 | 54 | 1010.9 |
| 20260505205105 | 11 | 45 | 0.0 | 0.0 | 0.00 | 0.00 | 0.00 | 53 | 1010.9 |
| 20260505204106 | 11 | 45 | 1.6 | 0.0 | 0.00 | 0.00 | 0.00 | 53 | 1010.9 |
| 20260505203105 | 11 | 292 | 4.8 | 6.4 | 0.00 | 0.00 | 0.00 | 53 | 1009.9 |
| 20260505202105 | 11 | 292 | 1.6 | 0.0 | 0.00 | 0.00 | 0.00 | 49 | 1009.9 |
| 20260505201106 | 11 | 180 | 0.0 | 0.0 | 0.00 | 0.00 | 0.00 | 49 | 1009.9 |
| 20260505200105 | 12 | 180 | 4.8 | 4.8 | 0.00 | 0.00 | 0.00 | 50 | 1009.9 |
| 20260505195105 | 12 | 180 | 0.0 | 0.0 | 0.00 | 0.00 | 0.00 | 49 | 1009.9 |
| 20260505194107 | 12 | 180 | 0.0 | 0.0 | 0.00 | 0.00 | 0.00 | 48 | 1009.9 |
| 20260505193106 | 13 | 180 | 0.0 | 4.8 | 0.00 | 0.00 | 0.00 | 48 | 1009.9 |
| 20260505192106 | 13 | 180 | 6.4 | 4.8 | 0.00 | 0.00 | 0.00 | 48 | 1009.9 |
| 20260505191105 | 13 | 202 | 3.2 | 4.8 | 0.00 | 0.00 | 0.00 | 48 | 1009.9 |
| 20260505190107 | 13 | 202 | 4.8 | 4.8 | 0.00 | 0.00 | 0.00 | 47 | 1009.9 |
| 20260505185107 | 13 | 202 | 0.0 | 0.0 | 0.00 | 0.00 | 0.00 | 47 | 1009.9 |
| 20260505184106 | 14 | 202 | 0.0 | 0.0 | 0.00 | 0.00 | 0.00 | 47 | 1008.9 |
| 20260505183105 | 14 | 202 | 0.0 | 0.0 | 0.00 | 0.00 | 0.00 | 47 | 1008.9 |
| 20260505182105 | 15 | 202 | 4.8 | 4.8 | 0.00 | 0.00 | 0.00 | 47 | 1008.9 |
| 20260505181106 | 15 | 202 | 0.0 | 0.0 | 0.00 | 0.00 | 0.00 | 48 | 1008.9 |
| 20260505180106 | 15 | 202 | 4.8 | 4.8 | 0.00 | 0.00 | 0.00 | 49 | 1008.9 |
| 20260505175106 | 15 | 225 | 4.8 | 6.4 | 0.00 | 0.00 | 0.00 | 51 | 1008.9 |
| 20260505174105 | 14 | 337 | 8.0 | 6.4 | 0.00 | 0.00 | 0.00 | 53 | 1008.9 |
| 20260505173107 | 14 | 337 | 9.7 | 6.4 | 0.00 | 0.00 | 0.00 | 51 | 1008.9 |
| 20260505172107 | 15 | 292 | 11.3 | 8.0 | 0.00 | 0.00 | 0.00 | 49 | 1008.9 |
| 20260505171106 | 15 | 337 | 11.3 | 8.0 | 0.00 | 0.00 | 0.00 | 46 | 1008.9 |
| 20260505170107 | 15 | 0 | 12.9 | 12.9 | 0.00 | 0.00 | 0.00 | 41 | 1008.9 |
| 20260505165106 | 15 | 292 | 19.3 | 12.9 | 0.00 | 0.00 | 0.00 | 35 | 1008.9 |
| 20260505164106 | 16 | 270 | 25.7 | 43.5 | 0.00 | 0.00 | 0.00 | 32 | 1008.9 |
| 20260505163107 | 17 | 292 | 17.7 | 16.1 | 0.00 | 0.00 | 0.00 | 21 | 1007.9 |
| 20260505162106 | 18 | 225 | 12.9 | 11.3 | 0.00 | 0.00 | 0.00 | 27 | 1007.9 |
| 20260505161105 | 20 | 315 | 11.3 | 11.3 | 0.00 | 0.00 | 0.00 | 20 | 1007.9 |
| 20260505160106 | 22 | 112 | 0.0 | 0.0 | 0.00 | 0.00 | 0.00 | 18 | 1007.9 |
| 20260505153105 | 23 | 67 | 1.6 | 4.8 | 0.00 | 0.00 | 0.00 | 18 | 1007.9 |
| 20260505152105 | 23 | 67 | 0.0 | 0.0 | 0.00 | 0.00 | 0.00 | 18 | 1007.9 |
| 20260505151106 | 24 | 67 | 0.0 | 0.0 | 0.00 | 0.00 | 0.00 | 18 | 1007.9 |
| 20260505150105 | 25 | 67 | 1.6 | 0.0 | 0.00 | 0.00 | 0.00 | 17 | 1007.9 |
| 20260505140106 | 26 | 90 | 4.8 | 4.8 | 0.00 | 0.00 | 0.00 | 17 | 1007.9 |
| 20260505130106 | 28 | 0 | 8.0 | 4.8 | 0.00 | 0.00 | 0.00 | 15 | 1008.9 |
| 20260505124105 | 27 | 45 | 4.8 | 6.4 | 0.00 | 0.00 | 0.00 | 15 | 1008.9 |
| 20260505123106 | 27 | 45 | 8.0 | 8.0 | 0.00 | 0.00 | 0.00 | 15 | 1008.9 |
| 20260505122106 | 26 | 90 | 4.8 | 4.8 | 0.00 | 0.00 | 0.00 | 17 | 1008.9 |
| 20260505121105 | 26 | 22 | 8.0 | 8.0 | 0.00 | 0.00 | 0.00 | 17 | 1008.9 |
| 20260505120106 | 26 | 22 | 4.8 | 4.8 | 0.00 | 0.00 | 0.00 | 17 | 1008.9 |
| 20260505115104 | 25 | 315 | 4.8 | 9.7 | 0.00 | 0.00 | 0.00 | 17 | 1008.9 |
| 20260505114104 | 25 | 247 | 8.0 | 9.7 | 0.00 | 0.00 | 0.00 | 17 | 1008.9 |
| 20260505113105 | 26 | 22 | 4.8 | 6.4 | 0.00 | 0.00 | 0.00 | 17 | 1009.9 |
| 20260505112105 | 25 | 337 | 8.0 | 11.3 | 0.00 | 0.00 | 0.00 | 17 | 1009.9 |
| 20260505111104 | 25 | 157 | 4.8 | 0.0 | 0.00 | 0.00 | 0.00 | 17 | 1009.9 |
| 20260505110105 | 24 | 247 | 6.4 | 4.8 | 0.00 | 0.00 | 0.00 | 18 | 1009.9 |